Time;durP1;ratioP1;P1;durP2;ratioP2;P2;SDS_P1;SDS_P2;PMS_P1;PMS_P2;Temp;Humidity;BMP_temperature;BMP_pressure;BME280_temperature;BME280_humidity;BME280_pressure;Samples;Min_cycle;Max_cycle;Signal;HPM_P1;HPM_P2
2022/03/14 00:02:11;;;;;;;9.57;6.00;;;;;;;3.74;39.11;101185.38;5043739;28;20100;-89
2022/03/14 00:04:38;;;;;;;9.48;6.40;;;;;;;3.75;39.46;101194.00;5035448;28;20057;-91
2022/03/14 00:07:11;;;;;;;9.65;6.43;;;;;;;3.75;39.17;101194.88;5045051;28;20038;-89
2022/03/14 00:09:42;;;;;;;16.85;8.65;;;;;;;3.79;38.94;101193.25;5042972;28;20037;-89
2022/03/14 00:12:23;;;;;;;13.27;7.38;;;;;;;3.79;39.02;101188.97;5027294;28;20049;-87
2022/03/14 00:14:53;;;;;;;7.53;5.60;;;;;;;3.79;39.38;101198.44;5011070;28;20132;-88
2022/03/14 00:17:23;;;;;;;11.70;6.90;;;;;;;3.78;39.65;101197.56;5043375;28;20084;-87
2022/03/14 00:19:59;;;;;;;10.07;5.85;;;;;;;3.72;39.52;101199.97;5026280;28;20114;-88
2022/03/14 00:22:27;;;;;;;7.80;6.40;;;;;;;3.70;39.31;101209.41;5054543;28;20048;-88
2022/03/14 00:24:55;;;;;;;10.70;6.40;;;;;;;3.67;39.84;101208.47;5019302;28;20063;-88
2022/03/14 00:27:27;;;;;;;7.35;6.43;;;;;;;3.64;39.98;101217.88;5042015;28;20064;-88
2022/03/14 00:29:56;;;;;;;12.13;6.10;;;;;;;3.62;39.88;101218.69;5033702;28;20152;-87
2022/03/14 00:32:24;;;;;;;8.80;6.18;;;;;;;3.59;40.12;101216.00;5028412;28;20095;-89
2022/03/14 00:34:50;;;;;;;11.15;6.68;;;;;;;3.58;39.96;101227.19;5040292;28;20041;-88
2022/03/14 00:37:18;;;;;;;11.25;6.43;;;;;;;3.52;39.93;101216.66;5031845;28;20069;-88
2022/03/14 00:39:47;;;;;;;10.13;7.25;;;;;;;3.48;40.94;101220.84;5030023;28;20169;-89
2022/03/14 00:42:20;;;;;;;8.27;5.80;;;;;;;3.44;40.33;101208.66;5024673;28;20041;-88
2022/03/14 00:44:47;;;;;;;10.45;6.20;;;;;;;3.39;40.57;101215.41;5020688;28;20049;-88
2022/03/14 00:47:16;;;;;;;7.80;5.57;;;;;;;3.34;40.45;101207.53;5025821;28;20490;-88
2022/03/14 00:49:44;;;;;;;10.50;7.68;;;;;;;3.30;40.91;101210.88;5010042;28;20068;-86
2022/03/14 00:52:13;;;;;;;8.85;5.80;;;;;;;3.27;40.72;101214.25;5007044;28;20520;-88
2022/03/14 00:54:42;;;;;;;14.40;8.00;;;;;;;3.23;41.23;101214.94;5005522;28;20153;-89
2022/03/14 00:57:08;;;;;;;8.55;6.55;;;;;;;3.20;40.87;101208.84;5008293;28;20053;-88
2022/03/14 00:59:36;;;;;;;8.93;6.28;;;;;;;3.19;41.11;101210.53;5023011;28;20041;-88
2022/03/14 01:02:03;;;;;;;7.93;5.85;;;;;;;3.21;41.29;101211.47;5025131;28;20046;-90
2022/03/14 01:04:29;;;;;;;14.00;8.75;;;;;;;3.21;40.70;101210.59;5020356;28;20073;-88
2022/03/14 01:07:02;;;;;;;10.68;6.65;;;;;;;3.17;41.13;101217.38;5023200;28;20054;-87
2022/03/14 01:09:39;;;;;;;12.48;7.65;;;;;;;3.13;40.97;101218.97;5014473;28;20111;-88
2022/03/14 01:12:07;;;;;;;9.15;6.32;;;;;;;3.13;41.21;101225.88;4993058;28;20489;-88
2022/03/14 01:14:34;;;;;;;9.05;6.97;;;;;;;3.13;42.06;101223.28;5003338;28;20061;-87
2022/03/14 01:17:00;;;;;;;8.07;5.85;;;;;;;3.11;41.51;101222.34;5007613;28;20049;-88
2022/03/14 01:19:27;;;;;;;8.23;6.72;;;;;;;3.13;41.40;101226.75;5023486;28;20052;-88
2022/03/14 01:21:54;;;;;;;13.25;6.15;;;;;;;3.10;41.66;101220.59;5018821;28;20072;-89
2022/03/14 01:24:24;;;;;;;7.63;5.72;;;;;;;3.09;41.61;101232.66;5036383;28;20068;-88
2022/03/14 01:26:54;;;;;;;10.27;5.95;;;;;;;3.08;41.79;101236.06;5036445;28;20060;-87
2022/03/14 01:29:22;;;;;;;16.02;6.63;;;;;;;3.08;41.66;101237.78;5019699;28;20133;-88
2022/03/14 01:31:51;;;;;;;9.60;6.80;;;;;;;3.11;41.74;101241.31;5012112;28;20049;-88
2022/03/14 01:34:19;;;;;;;11.05;6.35;;;;;;;3.10;41.93;101239.59;5004503;28;20053;-88
2022/03/14 01:36:46;;;;;;;9.80;6.78;;;;;;;3.14;41.87;101245.72;5008543;28;20046;-88
2022/03/14 01:39:13;;;;;;;9.07;5.82;;;;;;;3.13;41.74;101247.44;5006266;28;20140;-88
2022/03/14 01:41:42;;;;;;;14.68;7.00;;;;;;;3.12;41.61;101242.22;5008530;28;20052;-88
2022/03/14 01:44:09;;;;;;;11.68;7.78;;;;;;;3.10;41.96;101237.00;5003232;28;20069;-89
2022/03/14 01:46:36;;;;;;;10.55;5.95;;;;;;;3.09;41.65;101234.34;5008852;28;20100;-88
2022/03/14 01:49:05;;;;;;;14.60;6.68;;;;;;;3.06;42.07;101237.72;5019104;28;20095;-88
2022/03/14 01:51:33;;;;;;;13.45;6.57;;;;;;;3.03;42.04;101245.41;4987379;28;20062;-88
2022/03/14 01:54:00;;;;;;;12.80;6.30;;;;;;;2.99;41.71;101243.53;5003685;28;20053;-88
2022/03/14 01:56:27;;;;;;;8.32;7.15;;;;;;;2.96;42.17;101249.50;5019478;28;20061;-89
2022/03/14 01:58:54;;;;;;;10.02;6.80;;;;;;;2.94;41.85;101252.88;5011373;28;20095;-88
2022/03/14 02:01:22;;;;;;;11.90;6.75;;;;;;;2.93;42.03;101258.88;5024510;28;20528;-88
2022/03/14 02:03:51;;;;;;;8.40;6.85;;;;;;;2.91;41.71;101257.94;5023900;28;20378;-89
2022/03/14 02:06:19;;;;;;;10.88;6.50;;;;;;;2.91;42.26;101253.66;5037749;28;20057;-87
2022/03/14 02:08:49;;;;;;;10.65;6.43;;;;;;;2.94;42.33;101256.31;5034895;28;20096;-88
2022/03/14 02:11:17;;;;;;;10.45;6.40;;;;;;;2.97;42.15;101259.03;5009501;28;20045;-88
2022/03/14 02:13:44;;;;;;;8.30;6.68;;;;;;;2.96;42.00;101252.09;5024253;28;20088;-91
2022/03/14 02:16:10;;;;;;;10.95;7.13;;;;;;;2.98;42.07;101259.88;5019262;28;20049;-87
2022/03/14 02:18:40;;;;;;;9.55;6.72;;;;;;;2.98;42.19;101259.88;5022979;28;20077;-88
2022/03/14 02:21:13;;;;;;;10.43;6.40;;;;;;;2.94;41.87;101253.72;5032964;28;20053;-89
2022/03/14 02:23:42;;;;;;;8.68;5.75;;;;;;;2.94;41.88;101256.31;5017486;28;20071;-89
2022/03/14 02:26:13;;;;;;;8.73;5.80;;;;;;;2.93;41.47;101266.63;5021282;28;20048;-88
2022/03/14 02:28:41;;;;;;;8.85;6.35;;;;;;;2.93;41.58;101267.53;4997695;28;20045;-89
2022/03/14 02:31:09;;;;;;;9.30;6.07;;;;;;;2.94;41.79;101270.97;5031723;28;20047;-87
2022/03/14 02:33:36;;;;;;;8.32;6.15;;;;;;;2.96;41.35;101267.59;5022873;28;20052;-88
2022/03/14 02:36:03;;;;;;;10.63;6.57;;;;;;;2.97;41.69;101269.38;5021756;28;20049;-88
2022/03/14 02:38:32;;;;;;;15.27;7.28;;;;;;;2.98;41.11;101276.28;5022503;28;20103;-87
2022/03/14 02:41:01;;;;;;;10.32;6.38;;;;;;;2.97;41.36;101279.72;5006630;28;20049;-87
2022/03/14 02:46:10;;;;;;;8.32;5.97;;;;;;;2.95;41.48;101280.50;5030837;28;20662;-88
2022/03/14 02:48:39;;;;;;;10.75;6.50;;;;;;;2.94;41.34;101281.31;5019682;28;20549;-88
2022/03/14 02:51:15;;;;;;;8.27;6.05;;;;;;;2.91;41.01;101276.91;5003601;28;20049;-88
2022/03/14 02:53:42;;;;;;;10.10;6.05;;;;;;;2.91;41.68;101286.41;5013600;28;20172;-89
2022/03/14 02:56:09;;;;;;;8.98;6.38;;;;;;;2.91;41.66;101294.16;5000994;28;20152;-89
2022/03/14 02:58:39;;;;;;;10.50;6.53;;;;;;;2.87;41.32;101287.09;5020115;28;20049;-87
2022/03/14 03:01:06;;;;;;;11.45;6.78;;;;;;;2.86;41.40;101283.66;5009619;28;20045;-88
2022/03/14 03:03:34;;;;;;;10.63;6.40;;;;;;;2.86;41.59;101288.81;5022024;28;20038;-90
2022/03/14 03:06:04;;;;;;;13.40;6.30;;;;;;;2.85;41.61;101294.81;5004865;28;20535;-88
2022/03/14 03:08:36;;;;;;;9.13;6.40;;;;;;;2.81;41.42;101286.06;5008222;28;20064;-87
2022/03/14 03:11:08;;;;;;;7.97;5.57;;;;;;;2.79;41.69;101297.19;5025622;28;20053;-89
2022/03/14 03:13:36;;;;;;;12.00;6.40;;;;;;;2.77;41.64;101296.28;5040788;28;20029;-89
2022/03/14 03:16:03;;;;;;;12.15;7.57;;;;;;;2.74;41.73;101298.78;5035214;28;20123;-88
2022/03/14 03:18:31;;;;;;;8.30;6.15;;;;;;;2.69;41.56;101301.19;5010729;28;20524;-87
2022/03/14 03:20:59;;;;;;;10.52;6.55;;;;;;;2.64;42.02;101306.19;5007552;28;20136;-87
2022/03/14 03:23:33;;;;;;;7.20;5.97;;;;;;;2.60;42.31;101314.69;5016831;28;20053;-88
2022/03/14 03:26:01;;;;;;;10.27;7.28;;;;;;;2.56;42.77;101310.22;5021752;28;20060;-89
2022/03/14 03:28:35;;;;;;;9.95;6.65;;;;;;;2.54;43.31;101309.28;5021353;28;20052;-87
2022/03/14 03:31:16;;;;;;;11.02;6.88;;;;;;;2.50;44.09;101314.31;5024557;28;20129;-87
2022/03/14 03:33:44;;;;;;;8.65;5.93;;;;;;;2.45;43.59;101311.56;5006105;28;20118;-88
2022/03/14 03:36:10;;;;;;;9.38;6.50;;;;;;;2.43;43.46;101320.97;5004442;28;20046;-87
2022/03/14 03:38:39;;;;;;;16.30;8.40;;;;;;;2.41;43.98;101317.44;5005745;28;20128;-89
2022/03/14 03:41:08;;;;;;;10.15;7.03;;;;;;;2.38;43.98;101323.38;5005389;28;20138;-88
2022/03/14 03:43:35;;;;;;;11.60;7.32;;;;;;;2.35;43.59;101328.47;5021993;28;20552;-89
2022/03/14 03:46:02;;;;;;;12.20;6.82;;;;;;;2.33;44.07;101326.66;5008782;28;20435;-87
2022/03/14 03:48:28;;;;;;;10.82;6.55;;;;;;;2.32;44.06;101333.50;5012743;28;20077;-88
2022/03/14 03:50:56;;;;;;;11.73;7.30;;;;;;;2.34;43.99;101329.28;5006370;28;20041;-87
2022/03/14 03:53:24;;;;;;;9.15;7.55;;;;;;;2.34;44.02;101333.56;5022535;28;20105;-88
2022/03/14 03:55:52;;;;;;;14.15;7.57;;;;;;;2.35;43.38;101337.88;5022843;28;20112;-88
2022/03/14 03:58:18;;;;;;;10.07;7.47;;;;;;;2.38;43.78;101335.44;5026810;28;20109;-88
2022/03/14 04:00:45;;;;;;;9.05;6.35;;;;;;;2.37;43.92;101333.66;5035504;28;20045;-88
2022/03/14 04:03:12;;;;;;;13.25;7.80;;;;;;;2.36;43.95;101329.31;5020945;28;20056;-89
2022/03/14 04:05:39;;;;;;;8.90;6.32;;;;;;;2.36;43.64;101329.31;5004962;28;20041;-88
2022/03/14 04:08:11;;;;;;;9.77;6.53;;;;;;;2.37;44.03;101331.09;5024789;28;20545;-87
2022/03/14 04:10:41;;;;;;;9.93;5.72;;;;;;;2.35;44.52;101335.31;5011798;28;20107;-90
2022/03/14 04:13:13;;;;;;;11.60;7.18;;;;;;;2.34;44.34;101331.84;5038944;28;20055;-89
2022/03/14 04:15:43;;;;;;;9.50;7.00;;;;;;;2.32;43.99;101330.91;5039003;28;20072;-90
2022/03/14 04:18:10;;;;;;;10.60;6.15;;;;;;;2.31;44.93;101335.22;5012127;28;20049;-89
2022/03/14 04:20:38;;;;;;;9.68;6.63;;;;;;;2.30;44.18;101336.03;5009005;28;20033;-88
2022/03/14 04:23:05;;;;;;;9.95;7.63;;;;;;;2.29;44.43;101344.63;5023509;28;20121;-89
2022/03/14 04:25:34;;;;;;;9.38;6.82;;;;;;;2.26;44.43;101339.34;5021419;28;20809;-88
2022/03/14 04:28:05;;;;;;;10.65;8.30;;;;;;;2.22;44.85;101342.63;5028019;28;20045;-88
2022/03/14 04:30:35;;;;;;;11.63;7.55;;;;;;;2.22;44.89;101349.53;5025989;28;20503;-88
2022/03/14 04:33:11;;;;;;;10.35;7.05;;;;;;;2.20;44.82;101351.16;5005058;28;20055;-89
2022/03/14 04:35:39;;;;;;;13.85;7.80;;;;;;;2.19;44.96;101354.56;5020791;28;20510;-89
2022/03/14 04:38:12;;;;;;;12.70;8.13;;;;;;;2.18;45.15;101356.25;5022959;28;20076;-88
2022/03/14 04:40:42;;;;;;;9.25;6.88;;;;;;;2.17;45.52;101356.22;5008170;28;20105;-89
2022/03/14 04:43:16;;;;;;;9.02;6.90;;;;;;;2.18;45.28;101361.44;5022450;28;20042;-89
2022/03/14 04:45:44;;;;;;;9.20;7.65;;;;;;;2.20;45.37;101358.91;5020245;28;20053;-88
2022/03/14 04:48:12;;;;;;;16.45;9.30;;;;;;;2.21;45.25;101358.09;5020908;28;20615;-89
2022/03/14 04:50:39;;;;;;;10.23;7.18;;;;;;;2.23;44.96;101362.47;5018526;28;20116;-89
2022/03/14 04:53:07;;;;;;;11.70;7.05;;;;;;;2.27;45.13;101358.31;5016651;28;20053;-88
2022/03/14 04:55:38;;;;;;;8.75;6.60;;;;;;;2.30;45.49;101361.88;5015008;28;20111;-88
2022/03/14 04:58:07;;;;;;;11.13;6.85;;;;;;;2.35;45.45;101358.56;5015128;28;20057;-88
2022/03/14 05:00:35;;;;;;;11.85;6.70;;;;;;;2.40;45.37;101367.38;5022327;28;20053;-88
2022/03/14 05:03:08;;;;;;;12.15;7.05;;;;;;;2.42;45.54;101364.00;5041904;28;20042;-90
2022/03/14 05:05:35;;;;;;;12.95;7.00;;;;;;;2.48;45.14;101363.38;5045446;28;20052;-88
2022/03/14 05:08:04;;;;;;;10.18;7.18;;;;;;;2.55;44.60;101369.63;5006927;28;20042;-88
2022/03/14 05:10:34;;;;;;;14.68;8.85;;;;;;;2.59;44.63;101362.03;5025893;28;20167;-88
2022/03/14 05:13:10;;;;;;;10.15;6.70;;;;;;;2.63;44.87;101368.19;5010546;28;20052;-88
2022/03/14 05:15:37;;;;;;;8.48;7.15;;;;;;;2.68;44.82;101374.41;5026968;28;20751;-87
2022/03/14 05:18:04;;;;;;;11.27;7.40;;;;;;;2.75;44.65;101378.06;5022478;28;20042;-87
2022/03/14 05:20:36;;;;;;;10.40;7.30;;;;;;;2.78;44.87;101381.66;5016326;28;20100;-87
2022/03/14 05:23:03;;;;;;;11.85;7.38;;;;;;;2.83;44.30;101381.81;5020679;28;20472;-87
2022/03/14 05:25:30;;;;;;;11.50;7.18;;;;;;;2.87;44.34;101390.53;5023014;28;20061;-92
2022/03/14 05:27:57;;;;;;;10.85;6.80;;;;;;;2.87;44.47;101393.13;5011101;28;20504;-89
2022/03/14 05:30:25;;;;;;;12.82;7.35;;;;;;;2.90;44.55;101395.84;5030478;28;21607;-88
2022/03/14 05:32:52;;;;;;;9.70;7.25;;;;;;;2.94;44.26;101400.28;5012311;28;20500;-87
2022/03/14 05:35:19;;;;;;;11.18;7.03;;;;;;;3.00;44.23;101397.00;5022346;28;20078;-89
2022/03/14 05:37:48;;;;;;;10.57;7.60;;;;;;;3.05;44.38;101401.53;5024275;28;20743;-86
2022/03/14 05:40:20;;;;;;;14.13;7.90;;;;;;;3.12;43.96;101400.03;5009468;28;20053;-86
2022/03/14 05:42:49;;;;;;;11.15;7.13;;;;;;;3.16;44.31;101396.72;5025386;28;20100;-87
2022/03/14 05:45:18;;;;;;;13.50;8.35;;;;;;;3.21;44.14;101395.16;5017669;28;20041;-87
2022/03/14 05:47:46;;;;;;;13.95;7.65;;;;;;;3.26;43.85;101403.97;5017616;28;21373;-88
2022/03/14 05:50:16;;;;;;;9.25;7.43;;;;;;;3.32;43.77;101411.03;5020853;28;20084;-87
2022/03/14 05:52:48;;;;;;;14.05;6.72;;;;;;;3.37;43.47;101403.44;5019751;28;20491;-87
2022/03/14 05:55:15;;;;;;;9.95;7.07;;;;;;;3.41;43.94;101408.75;5023535;28;20049;-88
2022/03/14 05:57:42;;;;;;;8.68;7.45;;;;;;;3.46;43.66;101416.66;5030314;28;20041;-87
2022/03/14 06:00:10;;;;;;;12.27;6.70;;;;;;;3.51;43.36;101402.16;5028429;28;20069;-89
2022/03/14 06:02:38;;;;;;;9.75;6.90;;;;;;;3.55;43.76;101418.69;5018410;28;20044;-91
2022/03/14 06:05:05;;;;;;;14.40;7.43;;;;;;;3.61;43.35;101416.28;5015265;28;20982;-89
2022/03/14 06:07:35;;;;;;;21.17;8.85;;;;;;;3.67;43.99;101413.00;5006842;28;20045;-88
2022/03/14 06:10:02;;;;;;;16.30;9.05;;;;;;;3.74;43.58;101414.94;5019783;28;20769;-88
2022/03/14 06:12:31;;;;;;;11.27;7.65;;;;;;;3.79;43.61;101422.06;5024342;28;20047;-87
2022/03/14 06:15:09;;;;;;;10.70;7.80;;;;;;;3.86;43.77;101422.22;5007211;28;20053;-89
2022/03/14 06:17:38;;;;;;;14.90;7.68;;;;;;;3.93;43.82;101419.88;4994759;28;20156;-90
2022/03/14 06:20:06;;;;;;;15.93;9.35;;;;;;;3.98;43.46;101426.06;5002899;28;20046;-88
2022/03/14 06:22:39;;;;;;;11.38;7.32;;;;;;;4.08;43.85;101431.53;5020935;28;20044;-87
2022/03/14 06:25:08;;;;;;;9.87;7.00;;;;;;;4.13;43.59;101448.09;5018645;28;20142;-86
2022/03/14 06:27:35;;;;;;;14.25;8.45;;;;;;;4.17;43.01;101443.88;5005944;28;20092;-87
2022/03/14 06:30:04;;;;;;;11.15;7.93;;;;;;;4.23;43.28;101442.34;5022821;28;20049;-89
2022/03/14 06:32:39;;;;;;;11.55;8.20;;;;;;;4.28;42.94;101447.69;5001511;28;20056;-87
2022/03/14 06:35:10;;;;;;;17.10;9.05;;;;;;;4.32;43.19;101448.66;5017088;28;20766;-87
2022/03/14 06:37:38;;;;;;;15.25;7.88;;;;;;;4.36;42.56;101459.16;5003955;28;20042;-87
2022/03/14 06:40:09;;;;;;;15.00;8.95;;;;;;;4.39;43.02;101456.63;5019482;28;20059;-87
2022/03/14 06:42:41;;;;;;;13.18;9.25;;;;;;;4.42;43.01;101456.75;5022052;28;20137;-87
2022/03/14 06:45:13;;;;;;;16.40;8.13;;;;;;;4.46;43.11;101465.50;5035532;28;20113;-87
2022/03/14 06:47:56;;;;;;;16.15;9.43;;;;;;;4.49;42.98;101465.56;5032854;28;20049;-86
2022/03/14 06:53:29;;;;;;;13.77;8.75;;;;;;;4.67;42.73;101480.78;5298383;22;20044;-83
2022/03/14 06:56:07;;;;;;;14.68;7.82;;;;;;;4.75;43.35;101489.66;5005977;28;20029;-83
2022/03/14 06:58:44;;;;;;;19.98;8.98;;;;;;;4.84;43.18;101489.06;5017835;28;20049;-83
2022/03/14 07:01:22;;;;;;;14.77;10.30;;;;;;;4.89;43.44;101489.16;5023608;28;20349;-83
2022/03/14 07:07:11;;;;;;;15.77;7.63;;;;;;;5.05;45.44;101495.66;5007132;28;20563;-84
2022/03/14 07:09:37;;;;;;;16.08;8.25;;;;;;;5.12;46.04;101506.25;5007502;28;20055;-84
2022/03/14 07:12:05;;;;;;;15.77;8.85;;;;;;;5.19;46.70;101509.00;4992626;28;20700;-87
2022/03/14 07:14:58;;;;;;;13.43;8.75;;;;;;;5.29;47.27;101511.91;5009847;28;20042;-83
2022/03/14 07:17:31;;;;;;;11.95;8.13;;;;;;;5.47;48.62;101516.72;5029832;28;20040;-83
2022/03/14 07:19:57;;;;;;;12.07;8.48;;;;;;;5.61;48.40;101517.03;5005742;28;20049;-87
2022/03/14 07:22:26;;;;;;;11.77;7.65;;;;;;;5.76;48.77;101518.25;5006122;28;20077;-87
2022/03/14 07:24:53;;;;;;;13.40;8.18;;;;;;;5.89;48.15;101519.44;5004717;28;20049;-86
2022/03/14 07:30:11;;;;;;;16.85;7.95;;;;;;;6.16;48.39;101534.84;4993950;28;20057;-85
2022/03/14 07:35:17;;;;;;;12.68;9.80;;;;;;;6.39;50.17;101539.72;5056537;28;20053;-90
2022/03/14 07:37:46;;;;;;;;;;;;;;;6.49;50.64;101543.38;5047562;28;20049;-89
2022/03/14 07:40:35;;;;;;;13.07;7.97;;;;;;;6.60;49.66;101544.50;5040272;28;19929;-88
2022/03/14 07:43:16;;;;;;;13.13;8.73;;;;;;;6.72;50.21;101551.69;5013292;28;20257;-87
2022/03/14 07:46:04;;;;;;;11.75;8.98;;;;;;;6.85;50.98;101553.72;5026529;28;20053;-89
2022/03/14 07:51:24;;;;;;;14.65;8.68;;;;;;;7.02;52.01;101550.59;5029797;28;20136;-90
2022/03/14 07:53:51;;;;;;;19.05;8.98;;;;;;;7.08;51.17;101548.97;5011318;28;20908;-88
2022/03/14 07:56:19;;;;;;;16.98;9.90;;;;;;;7.16;51.23;101543.91;5015886;28;20060;-88
2022/03/14 07:58:49;;;;;;;17.65;9.45;;;;;;;7.25;51.24;101551.91;5012883;28;20689;-90
2022/03/14 08:01:17;;;;;;;13.20;8.45;;;;;;;7.36;51.53;101546.03;5041283;28;20025;-88
2022/03/14 08:03:45;;;;;;;16.00;8.82;;;;;;;7.49;51.23;101545.41;5048997;28;20047;-91
2022/03/14 08:06:17;;;;;;;14.40;8.88;;;;;;;7.62;51.44;101546.50;5049167;28;20110;-88
2022/03/14 08:09:05;;;;;;;15.32;9.70;;;;;;;7.75;51.44;101550.19;5008984;28;20037;-86
2022/03/14 08:11:33;;;;;;;15.35;8.65;;;;;;;7.84;51.17;101559.91;5003619;28;20404;-87
2022/03/14 08:14:01;;;;;;;19.02;9.68;;;;;;;7.90;51.20;101554.78;5033624;28;20056;-88
2022/03/14 08:16:30;;;;;;;16.85;9.63;;;;;;;7.98;51.24;101560.13;5013623;28;20106;-87
2022/03/14 08:18:59;;;;;;;11.82;7.53;;;;;;;8.06;51.33;101558.53;5029375;28;20048;-87
2022/03/14 08:21:25;;;;;;;11.32;8.57;;;;;;;8.14;51.44;101561.25;5012523;28;20044;-88
2022/03/14 08:23:54;;;;;;;15.77;9.15;;;;;;;8.21;51.62;101564.00;5011501;28;20053;-88
2022/03/14 08:26:22;;;;;;;17.25;10.07;;;;;;;8.23;51.84;101559.66;5007466;28;20048;-87
2022/03/14 08:28:49;;;;;;;15.20;11.00;;;;;;;8.26;52.44;101566.66;4998608;28;20076;-87
2022/03/14 08:31:25;;;;;;;13.88;9.63;;;;;;;8.30;52.37;101562.38;5022965;28;20060;-87
2022/03/14 08:33:58;;;;;;;16.73;9.95;;;;;;;8.37;52.57;101567.69;5002588;28;20576;-88
2022/03/14 08:36:27;;;;;;;16.30;10.52;;;;;;;8.44;52.60;101561.69;4994509;28;20049;-87
2022/03/14 08:38:56;;;;;;;15.35;10.32;;;;;;;8.55;53.10;101564.53;5015902;28;20061;-89
2022/03/14 08:41:31;;;;;;;24.48;10.73;;;;;;;8.65;53.48;101572.47;5014364;28;20076;-90
2022/03/14 08:44:00;;;;;;;15.32;11.05;;;;;;;8.75;54.78;101566.53;5030084;28;20072;-88
2022/03/14 08:46:27;;;;;;;15.10;10.07;;;;;;;8.86;54.90;101574.50;5011244;28;20136;-88
2022/03/14 08:48:55;;;;;;;15.57;10.80;;;;;;;8.98;54.85;101568.53;4990985;28;20053;-88
2022/03/14 08:51:27;;;;;;;18.70;10.80;;;;;;;9.12;55.25;101576.56;5017952;28;20055;-88
2022/03/14 08:53:55;;;;;;;17.50;9.85;;;;;;;9.20;56.21;101575.75;5007495;28;20054;-89
2022/03/14 08:59:05;;;;;;;12.80;9.15;;;;;;;9.29;59.29;101576.75;5009327;28;20038;-93
2022/03/14 09:01:35;;;;;;;13.55;9.15;;;;;;;9.35;59.79;101575.06;4975969;28;20049;-92
2022/03/14 09:04:03;;;;;;;11.05;7.95;;;;;;;9.40;61.01;101583.84;5011149;28;20132;-90
2022/03/14 09:06:36;;;;;;;13.35;8.38;;;;;;;9.48;63.10;101580.41;4985184;28;20106;-89
2022/03/14 09:09:05;;;;;;;;;;;;;;;9.56;64.19;101594.47;4980239;28;20049;-92
2022/03/14 09:11:35;;;;;;;12.77;8.95;;;;;;;9.68;63.56;101591.09;4989777;28;20091;-90
2022/03/14 09:17:11;;;;;;;14.05;8.20;;;;;;;9.75;64.89;101592.88;5027935;28;22203;-89
2022/03/14 09:19:38;;;;;;;12.75;9.20;;;;;;;9.74;66.71;101602.47;5010918;28;20042;-92
2022/03/14 09:22:14;;;;;;;10.40;7.40;;;;;;;9.72;67.26;101609.44;5041846;28;20080;-92
2022/03/14 09:24:43;;;;;;;12.02;8.77;;;;;;;9.76;69.18;101603.38;4995411;28;20068;-89
2022/03/14 09:38:21;;;;;;;8.35;5.53;;;;;;;10.04;68.27;101621.06;5028146;28;20100;-90
2022/03/14 09:43:44;;;;;;;6.72;5.18;;;;;;;9.82;67.83;101628.72;5012856;28;20048;-90
2022/03/14 09:46:15;;;;;;;7.47;5.05;;;;;;;9.79;68.12;101633.03;5001474;28;20500;-90
2022/03/14 09:49:02;;;;;;;5.15;4.65;;;;;;;9.73;68.40;101634.72;4997025;28;20051;-90
2022/03/14 09:51:29;;;;;;;7.82;5.25;;;;;;;9.65;69.00;101639.00;5011202;28;20053;-90
2022/03/14 09:59:22;;;;;;;;;;;;;;;9.18;72.89;101655.88;5017040;28;20045;-92
2022/03/14 10:01:55;;;;;;;6.20;5.22;;;;;;;9.15;75.06;101661.06;5016277;28;19921;-90
2022/03/14 10:04:24;;;;;;;7.97;6.18;;;;;;;9.06;74.28;101659.19;5046318;28;20037;-93
2022/03/14 10:12:42;;;;;;;7.03;6.10;;;;;;;9.13;75.02;101673.22;5030240;28;20037;-91
2022/03/14 10:15:15;;;;;;;7.13;6.18;;;;;;;9.15;75.30;101674.13;5009319;28;20046;-90
2022/03/14 10:17:46;;;;;;;6.35;5.47;;;;;;;9.16;75.73;101673.25;5034825;28;20049;-90
2022/03/14 10:20:17;;;;;;;6.68;5.40;;;;;;;9.13;76.29;101682.81;5026627;28;20059;-92
2022/03/14 10:42:16;;;;;;;7.95;6.35;;;;;;;8.74;82.53;101714.44;5015397;28;20069;-91
2022/03/14 10:48:02;;;;;;;8.63;6.53;;;;;;;8.79;83.42;101727.56;5016361;28;20080;-92
2022/03/14 10:50:38;;;;;;;8.90;6.60;;;;;;;8.78;83.98;101731.91;5009665;28;20056;-89
2022/03/14 11:05:38;;;;;;;9.73;6.93;;;;;;;8.90;86.33;101731.25;5037182;28;20123;-90
2022/03/14 11:12:21;;;;;;;10.23;6.70;;;;;;;8.90;87.39;101733.84;5023287;28;20038;-89
2022/03/14 11:14:55;;;;;;;7.95;6.45;;;;;;;9.01;87.78;101735.72;5015435;28;20057;-91
2022/03/14 11:22:58;;;;;;;4.90;4.18;;;;;;;9.02;87.39;101742.69;5024789;28;20049;-92
2022/03/14 11:25:29;;;;;;;6.13;4.53;;;;;;;9.13;87.17;101743.75;5012558;28;20053;-89
2022/03/14 11:29:16;;;;;;;6.72;4.50;;;;;;;9.33;87.02;101737.94;5018821;28;20688;-86
2022/03/14 11:34:50;;;;;;;4.47;4.00;;;;;;;9.46;85.63;101733.75;4993851;28;20080;-90
2022/03/14 11:40:08;;;;;;;3.78;3.38;;;;;;;9.60;85.43;101737.41;5011366;28;20050;-91
2022/03/14 11:42:42;;;;;;;4.80;4.10;;;;;;;9.65;86.31;101748.81;5009707;28;20465;-90
2022/03/14 11:48:14;;;;;;;5.25;3.40;;;;;;;9.93;85.82;101738.66;5137791;27;20433;-84
2022/03/14 11:50:57;;;;;;;3.55;2.88;;;;;;;10.19;83.68;101736.31;5096147;28;20052;-85
2022/03/14 11:53:27;;;;;;;3.37;3.03;;;;;;;10.46;83.00;101734.88;5085573;28;20027;-84
2022/03/14 11:56:06;;;;;;;3.92;2.97;;;;;;;10.67;80.42;101736.78;5096785;28;20615;-84
2022/03/14 11:58:39;;;;;;;3.83;2.60;;;;;;;10.68;80.75;101732.44;5104885;28;20039;-86
2022/03/14 12:01:29;;;;;;;4.38;2.75;;;;;;;10.75;80.97;101740.38;5084399;28;20705;-85
2022/03/14 12:04:05;;;;;;;3.10;2.80;;;;;;;10.79;80.42;101746.47;5085277;28;20066;-85
2022/03/14 12:06:47;;;;;;;3.60;2.53;;;;;;;10.70;80.35;101749.03;5071150;28;20040;-86
2022/03/14 12:09:25;;;;;;;4.05;3.05;;;;;;;10.33;82.06;101748.69;5107828;28;20047;-85
2022/03/14 12:11:53;;;;;;;3.17;2.88;;;;;;;10.02;83.67;101757.06;5089007;28;20401;-85
2022/03/14 12:14:44;;;;;;;3.67;3.22;;;;;;;9.79;85.08;101751.59;5087945;28;20055;-85
2022/03/14 12:17:13;;;;;;;4.13;2.78;;;;;;;9.71;85.37;101759.34;5076438;28;20063;-84
2022/03/14 12:19:48;;;;;;;3.33;3.03;;;;;;;9.50;86.72;101761.66;5086004;28;20696;-84
2022/03/14 12:22:35;;;;;;;3.55;2.80;;;;;;;9.30;88.04;101764.03;5073046;28;20058;-84
2022/03/14 12:25:05;;;;;;;3.38;3.08;;;;;;;9.17;89.39;101758.59;5068267;28;20048;-85
2022/03/14 12:27:36;;;;;;;3.22;2.92;;;;;;;9.06;91.04;101766.28;5087435;28;20073;-85
2022/03/14 12:30:16;;;;;;;3.60;3.25;;;;;;;9.01;91.80;101770.56;5089637;28;20492;-85
2022/03/14 12:32:46;;;;;;;3.30;3.00;;;;;;;8.99;92.45;101764.44;5089227;28;20048;-85
2022/03/14 12:35:22;;;;;;;4.20;3.67;;;;;;;8.91;92.23;101766.91;5101248;28;20048;-85
2022/03/14 12:37:55;;;;;;;4.95;3.78;;;;;;;8.85;93.73;101779.91;5070448;28;20048;-86
2022/03/14 12:40:21;;;;;;;6.03;3.13;;;;;;;8.82;93.75;101774.59;5080476;28;20461;-85
2022/03/14 12:42:54;;;;;;;4.20;3.55;;;;;;;8.77;94.42;101782.38;5080071;28;20098;-85
2022/03/14 12:45:30;;;;;;;3.97;3.10;;;;;;;8.67;94.95;101783.06;5050894;28;20406;-84
2022/03/14 12:48:18;;;;;;;3.47;2.75;;;;;;;8.65;95.67;101781.28;5078125;28;20044;-85
2022/03/14 12:50:57;;;;;;;3.85;3.30;;;;;;;8.61;96.47;101786.44;5077997;28;20051;-85
2022/03/14 12:53:27;;;;;;;4.15;3.55;;;;;;;8.58;97.04;101789.00;5048301;28;20109;-85
2022/03/14 12:55:58;;;;;;;3.67;3.00;;;;;;;8.60;96.42;101787.31;5064835;28;20055;-84
2022/03/14 12:58:28;;;;;;;4.32;3.13;;;;;;;8.67;97.38;101787.41;5040972;28;20056;-84
2022/03/14 13:01:07;;;;;;;3.90;3.53;;;;;;;8.65;97.45;101783.91;5036312;28;20060;-86
2022/03/14 13:03:36;;;;;;;4.07;3.67;;;;;;;8.65;98.03;101787.38;5039125;28;20053;-84
2022/03/14 13:06:05;;;;;;;6.68;3.90;;;;;;;8.69;98.07;101786.56;5056059;28;20109;-86
2022/03/14 13:08:32;;;;;;;4.32;3.92;;;;;;;8.71;98.61;101786.63;5046797;28;20049;-85
2022/03/14 13:11:01;;;;;;;4.07;3.78;;;;;;;8.69;98.68;101796.16;5031370;28;20087;-86
2022/03/14 13:13:38;;;;;;;4.40;3.85;;;;;;;8.70;98.65;101800.53;5050744;28;20103;-85
2022/03/14 13:16:09;;;;;;;6.15;4.00;;;;;;;8.69;98.19;101797.00;5055144;28;20136;-84
2022/03/14 13:18:43;;;;;;;5.18;4.63;;;;;;;8.71;99.40;101802.28;5046577;28;20052;-84
2022/03/14 13:21:25;;;;;;;6.32;5.07;;;;;;;8.71;99.31;101813.59;5050651;28;20046;-85
2022/03/14 13:24:06;;;;;;;6.80;5.57;;;;;;;8.72;99.29;101807.53;5045385;28;20052;-85
2022/03/14 13:26:36;;;;;;;6.68;5.25;;;;;;;8.74;99.29;101803.19;5036488;28;20045;-85
2022/03/14 13:29:04;;;;;;;7.53;5.40;;;;;;;8.80;98.86;101809.38;5050339;28;20048;-85